Time;durP1;ratioP1;P1;durP2;ratioP2;P2;SDS_P1;SDS_P2;PMS_P1;PMS_P2;Temp;Humidity;BMP_temperature;BMP_pressure;BME280_temperature;BME280_humidity;BME280_pressure;Samples;Min_cycle;Max_cycle;Signal;HPM_P1;HPM_P2
2022/05/19 00:09:11;;;;;;;1.00;0.80;;;;;;;7.84;63.45;101737.50;18497111;32;20480;-63
2022/05/19 00:19:15;;;;;;;1.25;1.08;;;;;;;8.14;62.99;101741.00;18499099;32;20118;-63
2022/05/19 00:29:20;;;;;;;0.93;0.90;;;;;;;7.68;64.04;101750.84;18497787;32;20173;-63
2022/05/19 00:39:23;;;;;;;2.42;1.33;;;;;;;8.01;62.82;101758.81;18497591;32;20111;-63
2022/05/19 00:49:31;;;;;;;1.27;1.15;;;;;;;6.59;69.05;101765.41;18497243;32;20121;-63
2022/05/19 00:59:36;;;;;;;1.30;1.00;;;;;;;7.12;67.84;101762.06;18496599;32;20100;-63
2022/05/19 01:09:42;;;;;;;1.45;1.12;;;;;;;7.20;68.06;101751.09;18496647;32;20476;-63
2022/05/19 01:19:48;;;;;;;2.17;1.00;;;;;;;6.90;68.96;101759.59;18495810;32;20107;-63
2022/05/19 01:29:54;;;;;;;5.53;1.40;;;;;;;7.07;68.84;101757.56;18496849;32;20080;-63
2022/05/19 01:40:01;;;;;;;2.12;1.10;;;;;;;6.99;70.10;101756.44;18495308;32;20100;-63
2022/05/19 01:50:09;;;;;;;1.85;1.15;;;;;;;6.74;70.47;101753.00;18494670;32;20205;-63
2022/05/19 02:00:17;;;;;;;1.75;1.10;;;;;;;6.77;70.02;101755.69;18494278;32;20088;-63
2022/05/19 02:10:25;;;;;;;2.17;1.10;;;;;;;6.49;70.21;101770.25;18494772;32;20441;-63
2022/05/19 02:20:29;;;;;;;2.03;1.20;;;;;;;6.91;70.47;101770.84;18494279;32;20092;-63
2022/05/19 02:30:36;;;;;;;1.37;1.20;;;;;;;6.51;70.63;101773.78;18494339;32;20403;-63
2022/05/19 02:40:40;;;;;;;3.47;1.65;;;;;;;6.59;70.39;101784.47;18500904;32;20124;-63
2022/05/19 02:50:45;;;;;;;21.27;1.90;;;;;;;6.73;69.57;101784.94;18500470;32;20146;-63
2022/05/19 03:00:49;;;;;;;2.50;1.33;;;;;;;5.95;72.27;101799.31;18500054;32;20092;-63
2022/05/19 03:10:54;;;;;;;2.62;1.20;;;;;;;6.27;71.29;101798.84;18501130;32;20422;-63
2022/05/19 03:20:57;;;;;;;3.15;1.52;;;;;;;6.21;70.39;101795.16;18499662;32;20096;-63
2022/05/19 03:31:01;;;;;;;3.40;1.48;;;;;;;5.77;72.42;101804.62;18499326;32;20096;-62
2022/05/19 03:41:05;;;;;;;4.37;1.87;;;;;;;5.43;73.59;101821.41;18498988;32;20136;-63
2022/05/19 03:51:11;;;;;;;2.05;1.45;;;;;;;6.27;72.37;101815.25;18498826;32;20100;-63
2022/05/19 04:01:14;;;;;;;3.17;1.67;;;;;;;6.87;71.86;101831.28;18498440;32;20111;-63
2022/05/19 04:11:19;;;;;;;3.72;1.58;;;;;;;7.96;69.08;101835.81;18499360;32;20145;-63
2022/05/19 04:21:22;;;;;;;3.33;1.60;;;;;;;7.86;71.41;101839.81;18498043;32;20115;-63
2022/05/19 04:31:27;;;;;;;3.47;1.20;;;;;;;8.91;69.27;101832.53;18497862;32;20115;-63
2022/05/19 04:41:30;;;;;;;2.58;1.25;;;;;;;9.84;66.03;101833.19;18497593;32;20092;-63
2022/05/19 04:51:34;;;;;;;2.45;1.20;;;;;;;10.59;64.79;101834.00;18496580;32;20132;-64
2022/05/19 05:01:38;;;;;;;4.00;1.40;;;;;;;11.41;63.92;101832.94;18496831;32;20092;-64
2022/05/19 05:11:42;;;;;;;2.30;1.33;;;;;;;11.97;63.14;101836.44;18495170;32;20111;-64
2022/05/19 05:21:45;;;;;;;3.15;1.40;;;;;;;12.83;59.36;101834.97;18496022;32;20535;-64
2022/05/19 05:31:50;;;;;;;2.35;1.20;;;;;;;14.02;56.01;101830.78;18494024;32;20100;-64
2022/05/19 05:41:53;;;;;;;3.15;1.10;;;;;;;15.50;49.24;101851.50;18493789;32;20092;-64
2022/05/19 05:51:58;;;;;;;3.33;1.35;;;;;;;14.29;48.67;101863.34;18492806;32;20111;-65
2022/05/19 06:02:01;;;;;;;2.15;1.10;;;;;;;15.58;44.19;101849.75;18493693;32;20157;-64
2022/05/19 06:12:06;;;;;;;3.08;1.35;;;;;;;16.31;43.28;101851.41;18500112;32;20122;-65
2022/05/19 06:22:10;;;;;;;2.50;1.40;;;;;;;15.87;42.46;101840.06;18501370;32;20096;-65
2022/05/19 06:32:14;;;;;;;1.80;1.10;;;;;;;15.61;44.17;101839.19;18501236;32;20445;-65
2022/05/19 06:42:17;;;;;;;3.47;1.23;;;;;;;18.26;36.43;101841.31;18499362;32;20111;-65
2022/05/19 06:52:24;;;;;;;2.42;1.27;;;;;;;17.36;37.92;101851.78;18500330;32;20110;-64
2022/05/19 07:02:27;;;;;;;3.60;1.40;;;;;;;17.88;40.25;101848.72;18497407;32;20100;-65
2022/05/19 07:12:33;;;;;;;3.22;1.20;;;;;;;18.48;33.60;101842.81;18498802;32;20127;-66
2022/05/19 07:22:36;;;;;;;3.10;1.30;;;;;;;21.01;29.84;101829.66;18492739;32;20148;-66
2022/05/19 07:32:41;;;;;;;4.80;1.10;;;;;;;22.08;28.55;101834.06;18496809;32;20096;-67
2022/05/19 07:42:44;;;;;;;2.65;1.37;;;;;;;25.66;22.85;101816.28;18498716;32;20280;-67
2022/05/19 07:52:49;;;;;;;2.70;0.93;;;;;;;26.18;23.17;101802.38;18484280;32;20115;-66
2022/05/19 08:02:53;;;;;;;3.78;0.88;;;;;;;24.31;24.95;101802.03;18498071;32;20120;-66
2022/05/19 08:23:21;;;;;;;0.60;0.60;;;;;;;23.48;24.78;101805.88;18497689;32;20088;-66
2022/05/19 08:33:26;;;;;;;3.10;0.98;;;;;;;23.44;24.73;101802.44;18496069;32;20084;-66
2022/05/19 08:43:34;;;;;;;1.00;0.70;;;;;;;22.99;24.87;101795.91;18497266;32;20183;-65
2022/05/19 08:53:41;;;;;;;3.12;1.12;;;;;;;23.93;25.44;101794.53;18497992;32;20173;-65
2022/05/19 09:03:51;;;;;;;2.47;1.00;;;;;;;23.75;23.51;101784.53;18495984;32;20096;-66
2022/05/19 09:13:59;;;;;;;3.53;1.50;;;;;;;24.56;23.71;101785.09;18496387;32;20409;-67
2022/05/19 09:24:03;;;;;;;2.60;1.08;;;;;;;25.87;20.12;101780.56;18493346;32;20091;-66
2022/05/19 09:34:10;;;;;;;2.17;1.10;;;;;;;25.32;20.09;101759.78;18494709;32;20095;-66
2022/05/19 09:44:15;;;;;;;1.87;0.95;;;;;;;25.53;19.87;101757.12;18494486;32;20170;-66
2022/05/19 09:54:23;;;;;;;3.25;1.40;;;;;;;25.06;17.32;101740.38;18494091;32;20460;-66
2022/05/19 10:04:27;;;;;;;3.47;1.40;;;;;;;25.77;18.55;101744.47;18493506;32;20415;-66
2022/05/19 10:14:33;;;;;;;4.18;1.50;;;;;;;26.03;18.55;101727.22;18468675;32;20636;-66
2022/05/19 10:24:49;;;;;;;2.72;0.77;;;;;;;25.94;19.31;101722.31;18267948;32;20075;-65
2022/05/19 10:34:59;;;;;;;1.67;0.68;;;;;;;26.30;20.40;101701.97;18272470;32;20094;-65
2022/05/19 10:45:17;;;;;;;3.03;0.80;;;;;;;26.22;18.39;101698.78;18296400;32;20097;-64
2022/05/19 10:55:41;;;;;;;1.92;0.80;;;;;;;26.13;17.84;101670.59;18287360;32;20184;-64
2022/05/19 11:05:53;;;;;;;1.15;0.70;;;;;;;26.69;19.27;101668.78;18350356;32;20474;-65
2022/05/19 11:16:05;;;;;;;2.37;0.60;;;;;;;26.87;17.60;101656.25;18301150;32;20121;-66
2022/05/19 11:26:26;;;;;;;1.37;0.70;;;;;;;26.42;16.57;101642.47;18299803;32;20147;-65
2022/05/19 11:36:36;;;;;;;0.73;0.50;;;;;;;26.74;16.50;101633.75;18300311;32;20120;-65
2022/05/19 11:46:45;;;;;;;3.50;0.80;;;;;;;26.96;15.43;101616.59;18303631;32;20093;-65
2022/05/19 11:56:50;;;;;;;1.58;0.68;;;;;;;27.19;15.87;101599.28;18298800;32;20354;-64
2022/05/19 12:06:56;;;;;;;1.20;0.60;;;;;;;27.79;15.73;101589.81;18302193;32;20097;-66
2022/05/19 12:17:15;;;;;;;1.70;0.73;;;;;;;27.53;16.46;101575.13;18304509;32;20141;-66
2022/05/19 12:27:20;;;;;;;1.08;0.60;;;;;;;28.03;18.82;101564.31;18300969;32;20119;-66
2022/05/19 12:37:49;;;;;;;0.70;0.40;;;;;;;27.97;15.21;101558.38;18296205;32;20085;-66
2022/05/19 12:47:58;;;;;;;0.52;0.50;;;;;;;27.57;14.98;101557.97;18299759;32;20116;-66
2022/05/19 12:58:42;;;;;;;1.98;0.57;;;;;;;27.99;15.73;101539.50;18287823;32;205574;-65
2022/05/19 13:08:52;;;;;;;2.08;0.68;;;;;;;27.48;16.64;101547.72;18296809;32;20112;-66
2022/05/19 13:19:00;;;;;;;0.50;0.50;;;;;;;27.96;16.46;101523.56;18280816;32;20111;-66
2022/05/19 13:39:30;;;;;;;1.67;0.85;;;;;;;28.48;17.44;101513.41;18296904;32;20084;-65
2022/05/19 13:49:33;;;;;;;1.10;0.70;;;;;;;28.28;14.73;101504.75;18299095;32;20089;-66
2022/05/19 13:59:38;;;;;;;1.77;0.52;;;;;;;28.40;15.83;101495.06;18295751;32;20090;-65
2022/05/19 14:09:45;;;;;;;1.50;0.70;;;;;;;28.15;15.23;101482.22;18298050;32;20683;-66
2022/05/19 14:19:50;;;;;;;1.17;0.70;;;;;;;28.31;14.66;101471.47;18296016;32;20101;-66
2022/05/19 14:30:12;;;;;;;1.48;0.60;;;;;;;27.68;16.46;101463.47;18298153;32;20100;-68
2022/05/19 14:50:59;;;;;;;2.17;0.82;;;;;;;27.67;15.64;101438.47;18303247;32;20116;-66
2022/05/19 15:01:04;;;;;;;1.55;0.77;;;;;;;27.65;15.20;101436.84;18301860;32;20098;-64
2022/05/19 15:11:08;;;;;;;1.40;0.55;;;;;;;27.98;16.18;101436.66;18288424;32;20116;-66
2022/05/19 15:21:12;;;;;;;16.10;1.80;;;;;;;28.02;16.63;101429.28;18302212;32;20165;-65
2022/05/19 15:31:16;;;;;;;1.70;0.80;;;;;;;27.52;16.95;101420.56;18303000;32;20097;-66
2022/05/19 15:41:22;;;;;;;1.40;0.90;;;;;;;27.51;16.04;101402.75;18302084;32;20180;-66
2022/05/19 15:51:25;;;;;;;3.87;1.30;;;;;;;26.95;17.37;101387.16;18304812;32;20401;-66
2022/05/19 16:01:31;;;;;;;0.90;0.70;;;;;;;27.09;16.85;101383.69;18304023;32;20237;-66
2022/05/19 16:11:35;;;;;;;2.03;0.88;;;;;;;27.03;17.04;101368.81;18303821;32;20070;-66
2022/05/19 16:21:39;;;;;;;1.27;0.70;;;;;;;26.42;17.55;101366.75;18301437;32;20394;-66
2022/05/19 16:31:42;;;;;;;5.37;1.08;;;;;;;26.63;17.83;101357.62;18301555;32;20094;-66
2022/05/19 16:41:47;;;;;;;2.47;0.93;;;;;;;26.48;17.32;101360.19;18302078;32;20090;-66
2022/05/19 16:51:50;;;;;;;2.20;0.80;;;;;;;26.43;19.72;101356.91;18360227;32;20081;-66
2022/05/19 17:01:55;;;;;;;1.42;0.80;;;;;;;26.07;20.38;101352.56;18356763;32;20117;-66
2022/05/19 17:11:58;;;;;;;1.70;0.73;;;;;;;26.02;20.28;101344.78;18293746;32;20164;-67
2022/05/19 17:22:05;;;;;;;1.55;0.70;;;;;;;25.55;21.30;101340.91;18319719;32;20124;-66
2022/05/19 17:32:09;;;;;;;4.95;1.17;;;;;;;25.10;23.47;101348.44;18349811;32;20096;-66
2022/05/19 17:42:14;;;;;;;7.30;1.05;;;;;;;24.64;24.56;101347.88;18364506;32;20148;-66
2022/05/19 17:52:17;;;;;;;4.20;1.48;;;;;;;24.07;27.15;101342.44;18360208;32;20111;-66
2022/05/19 18:02:22;;;;;;;2.90;0.80;;;;;;;23.59;30.00;101352.47;18320472;32;20135;-66
2022/05/19 18:12:25;;;;;;;2.20;1.17;;;;;;;23.00;31.04;101355.66;18320491;32;20093;-65
2022/05/19 18:22:30;;;;;;;6.62;1.25;;;;;;;22.23;31.04;101360.25;18329283;32;20117;-69
2022/05/19 18:32:34;;;;;;;4.80;1.40;;;;;;;21.23;35.28;101368.00;18317194;32;20354;-65
2022/05/19 18:53:00;;;;;;;1.25;0.73;;;;;;;19.39;39.09;101372.06;18299269;32;20097;-65
2022/05/19 19:03:05;;;;;;;3.78;1.35;;;;;;;18.22;39.80;101377.09;18302760;32;20770;-66
2022/05/19 19:13:09;;;;;;;4.78;1.20;;;;;;;18.53;39.80;101388.88;18358687;32;20105;-65
2022/05/19 19:23:13;;;;;;;4.07;1.30;;;;;;;17.58;42.57;101386.09;18326358;32;20151;-66
2022/05/19 19:33:16;;;;;;;2.03;1.20;;;;;;;17.59;42.47;101393.09;18288589;32;20361;-66
2022/05/19 19:43:21;;;;;;;2.40;1.15;;;;;;;16.88;43.78;101384.41;18303955;32;20085;-65
2022/05/19 19:53:24;;;;;;;4.07;1.08;;;;;;;16.66;44.69;101394.31;18287840;32;20098;-66
2022/05/19 20:03:29;;;;;;;2.85;1.15;;;;;;;15.97;46.19;101403.81;18314877;32;20129;-66
2022/05/19 20:13:34;;;;;;;3.55;1.40;;;;;;;15.81;47.97;101406.53;18286614;32;20385;-67
2022/05/19 20:23:38;;;;;;;2.28;1.35;;;;;;;15.65;48.87;101408.41;18303856;32;20144;-66
2022/05/19 20:33:43;;;;;;;1.87;1.23;;;;;;;14.52;52.49;101410.69;18291581;32;20340;-65
2022/05/19 20:43:47;;;;;;;2.72;1.30;;;;;;;14.21;53.62;101410.72;18299882;32;20093;-66
2022/05/19 20:53:51;;;;;;;5.78;1.48;;;;;;;13.92;53.84;101416.84;18304881;32;20097;-65
2022/05/19 21:03:55;;;;;;;3.37;1.75;;;;;;;13.18;54.75;101418.47;18290752;32;20124;-65
2022/05/19 21:13:59;;;;;;;1.90;1.15;;;;;;;13.80;53.37;101416.87;18291636;32;20099;-65
2022/05/19 21:34:44;;;;;;;3.72;1.75;;;;;;;13.16;55.24;101401.84;18303428;32;20180;-65
2022/05/19 21:44:48;;;;;;;5.97;2.30;;;;;;;12.96;56.19;101406.13;18303539;32;20115;-65
2022/05/19 22:05:14;;;;;;;8.02;2.55;;;;;;;12.40;58.60;101396.28;18302201;32;20102;-65
2022/05/19 22:15:17;;;;;;;5.22;2.28;;;;;;;11.97;60.02;101404.66;18287407;32;20102;-65
2022/05/19 22:25:22;;;;;;;6.43;2.12;;;;;;;11.57;61.56;101412.13;18301107;32;20106;-65
2022/05/19 22:35:25;;;;;;;4.95;1.98;;;;;;;11.40;62.21;101407.63;18300614;32;20108;-65
2022/05/19 22:45:30;;;;;;;4.97;2.00;;;;;;;11.30;63.35;101400.53;18300887;32;20094;-64
2022/05/19 22:55:39;;;;;;;3.67;1.75;;;;;;;11.29;63.11;101402.25;18308595;32;20423;-65
2022/05/19 23:05:44;;;;;;;5.75;2.35;;;;;;;11.01;63.63;101391.50;18309005;32;20134;-65
2022/05/19 23:15:48;;;;;;;4.25;2.25;;;;;;;11.18;63.01;101391.69;18307919;32;20155;-65
2022/05/19 23:25:52;;;;;;;5.40;2.35;;;;;;;10.87;64.83;101383.50;18307588;32;20129;-65
2022/05/19 23:35:59;;;;;;;6.70;2.28;;;;;;;11.04;63.51;101393.28;18308417;32;20104;-65
2022/05/19 23:46:04;;;;;;;4.65;2.25;;;;;;;10.03;67.06;101384.91;18307257;32;20443;-64
2022/05/19 23:56:07;;;;;;;4.72;2.08;;;;;;;10.43;66.08;101395.09;18306827;32;20115;-65
